sensor_id;sensor_type;location;lat;lon;timestamp;P1;durP1;ratioP1;P2;durP2;ratioP2
72205;SDS011;60111;48.286;7.812;2023-06-22T00:02:31;8.93;;;7.83;;
72205;SDS011;60111;48.286;7.812;2023-06-22T00:05:04;17.05;;;8.33;;
72205;SDS011;60111;48.286;7.812;2023-06-22T00:07:37;11.00;;;7.90;;
72205;SDS011;60111;48.286;7.812;2023-06-22T00:10:09;14.40;;;8.50;;
72205;SDS011;60111;48.286;7.812;2023-06-22T00:12:42;12.80;;;8.60;;
72205;SDS011;60111;48.286;7.812;2023-06-22T00:15:14;10.50;;;8.08;;
72205;SDS011;60111;48.286;7.812;2023-06-22T00:17:49;12.13;;;8.93;;
72205;SDS011;60111;48.286;7.812;2023-06-22T00:20:22;10.43;;;8.10;;
72205;SDS011;60111;48.286;7.812;2023-06-22T00:22:57;13.08;;;9.15;;
72205;SDS011;60111;48.286;7.812;2023-06-22T00:25:30;11.77;;;8.63;;
72205;SDS011;60111;48.286;7.812;2023-06-22T00:28:03;16.62;;;8.63;;
72205;SDS011;60111;48.286;7.812;2023-06-22T00:30:36;11.60;;;8.20;;
72205;SDS011;60111;48.286;7.812;2023-06-22T00:33:09;14.83;;;9.58;;
72205;SDS011;60111;48.286;7.812;2023-06-22T00:35:41;13.03;;;7.90;;
72205;SDS011;60111;48.286;7.812;2023-06-22T00:38:14;14.47;;;8.73;;
72205;SDS011;60111;48.286;7.812;2023-06-22T00:40:46;11.50;;;8.67;;
72205;SDS011;60111;48.286;7.812;2023-06-22T00:43:19;12.33;;;9.63;;
72205;SDS011;60111;48.286;7.812;2023-06-22T00:45:52;12.90;;;9.18;;
72205;SDS011;60111;48.286;7.812;2023-06-22T00:48:27;13.22;;;9.85;;
72205;SDS011;60111;48.286;7.812;2023-06-22T00:51:00;14.20;;;9.15;;
72205;SDS011;60111;48.286;7.812;2023-06-22T00:53:32;15.08;;;9.38;;
72205;SDS011;60111;48.286;7.812;2023-06-22T00:56:05;12.10;;;8.80;;
72205;SDS011;60111;48.286;7.812;2023-06-22T00:58:39;14.25;;;8.85;;
72205;SDS011;60111;48.286;7.812;2023-06-22T01:01:12;10.28;;;8.25;;
72205;SDS011;60111;48.286;7.812;2023-06-22T01:03:45;17.90;;;9.85;;
72205;SDS011;60111;48.286;7.812;2023-06-22T01:06:20;12.98;;;9.00;;
72205;SDS011;60111;48.286;7.812;2023-06-22T01:09:04;12.85;;;8.48;;
72205;SDS011;60111;48.286;7.812;2023-06-22T01:11:52;14.03;;;9.45;;
72205;SDS011;60111;48.286;7.812;2023-06-22T01:14:31;12.63;;;8.58;;
72205;SDS011;60111;48.286;7.812;2023-06-22T01:17:15;16.07;;;9.30;;
72205;SDS011;60111;48.286;7.812;2023-06-22T01:19:50;11.33;;;8.28;;
72205;SDS011;60111;48.286;7.812;2023-06-22T01:22:28;12.25;;;8.43;;
72205;SDS011;60111;48.286;7.812;2023-06-22T01:25:10;16.15;;;9.63;;
72205;SDS011;60111;48.286;7.812;2023-06-22T01:28:05;13.60;;;9.08;;
72205;SDS011;60111;48.286;7.812;2023-06-22T01:30:39;12.17;;;8.20;;
72205;SDS011;60111;48.286;7.812;2023-06-22T01:33:14;11.85;;;8.93;;
72205;SDS011;60111;48.286;7.812;2023-06-22T01:35:48;12.88;;;9.40;;
72205;SDS011;60111;48.286;7.812;2023-06-22T01:38:20;16.37;;;9.70;;
72205;SDS011;60111;48.286;7.812;2023-06-22T01:40:53;13.98;;;9.45;;
72205;SDS011;60111;48.286;7.812;2023-06-22T01:43:27;14.05;;;9.70;;
72205;SDS011;60111;48.286;7.812;2023-06-22T01:46:01;17.62;;;9.83;;
72205;SDS011;60111;48.286;7.812;2023-06-22T01:51:06;15.95;;;10.18;;
72205;SDS011;60111;48.286;7.812;2023-06-22T01:53:39;19.27;;;9.63;;
72205;SDS011;60111;48.286;7.812;2023-06-22T01:56:11;13.57;;;8.93;;
72205;SDS011;60111;48.286;7.812;2023-06-22T01:58:48;17.20;;;10.15;;
72205;SDS011;60111;48.286;7.812;2023-06-22T02:01:31;14.63;;;8.85;;
72205;SDS011;60111;48.286;7.812;2023-06-22T02:04:06;23.20;;;10.32;;
72205;SDS011;60111;48.286;7.812;2023-06-22T02:06:41;14.90;;;9.15;;
72205;SDS011;60111;48.286;7.812;2023-06-22T02:09:16;20.32;;;9.08;;
72205;SDS011;60111;48.286;7.812;2023-06-22T02:11:51;12.77;;;8.03;;
72205;SDS011;60111;48.286;7.812;2023-06-22T02:14:26;15.90;;;8.28;;
72205;SDS011;60111;48.286;7.812;2023-06-22T02:16:59;11.10;;;8.10;;
72205;SDS011;60111;48.286;7.812;2023-06-22T02:19:31;12.50;;;8.30;;
72205;SDS011;60111;48.286;7.812;2023-06-22T02:22:04;20.45;;;9.18;;
72205;SDS011;60111;48.286;7.812;2023-06-22T02:24:37;14.03;;;7.80;;
72205;SDS011;60111;48.286;7.812;2023-06-22T02:27:09;15.45;;;8.13;;
72205;SDS011;60111;48.286;7.812;2023-06-22T02:29:42;19.50;;;7.83;;
72205;SDS011;60111;48.286;7.812;2023-06-22T02:32:14;15.45;;;8.00;;
72205;SDS011;60111;48.286;7.812;2023-06-22T02:34:48;12.85;;;8.10;;
72205;SDS011;60111;48.286;7.812;2023-06-22T02:37:21;13.13;;;7.00;;
72205;SDS011;60111;48.286;7.812;2023-06-22T02:42:27;13.38;;;8.23;;
72205;SDS011;60111;48.286;7.812;2023-06-22T02:45:00;14.55;;;7.80;;
72205;SDS011;60111;48.286;7.812;2023-06-22T02:47:32;10.65;;;7.47;;
72205;SDS011;60111;48.286;7.812;2023-06-22T02:50:05;14.53;;;7.95;;
72205;SDS011;60111;48.286;7.812;2023-06-22T02:52:38;15.50;;;8.87;;
72205;SDS011;60111;48.286;7.812;2023-06-22T02:55:10;15.85;;;8.60;;
72205;SDS011;60111;48.286;7.812;2023-06-22T02:57:43;14.13;;;9.57;;
72205;SDS011;60111;48.286;7.812;2023-06-22T03:02:49;18.80;;;9.98;;
72205;SDS011;60111;48.286;7.812;2023-06-22T03:05:21;15.65;;;10.28;;
72205;SDS011;60111;48.286;7.812;2023-06-22T03:07:54;14.10;;;10.70;;
72205;SDS011;60111;48.286;7.812;2023-06-22T03:10:27;13.13;;;10.67;;
72205;SDS011;60111;48.286;7.812;2023-06-22T03:12:59;12.82;;;9.33;;
72205;SDS011;60111;48.286;7.812;2023-06-22T03:15:32;13.80;;;9.10;;
72205;SDS011;60111;48.286;7.812;2023-06-22T03:18:04;12.75;;;9.80;;
72205;SDS011;60111;48.286;7.812;2023-06-22T03:20:37;14.53;;;9.85;;
72205;SDS011;60111;48.286;7.812;2023-06-22T03:23:10;17.82;;;11.03;;
72205;SDS011;60111;48.286;7.812;2023-06-22T03:25:42;15.13;;;10.18;;
72205;SDS011;60111;48.286;7.812;2023-06-22T03:28:18;15.95;;;9.80;;
72205;SDS011;60111;48.286;7.812;2023-06-22T03:30:50;14.00;;;9.73;;
72205;SDS011;60111;48.286;7.812;2023-06-22T03:33:23;14.58;;;10.60;;
72205;SDS011;60111;48.286;7.812;2023-06-22T03:35:55;16.73;;;12.13;;
72205;SDS011;60111;48.286;7.812;2023-06-22T03:38:28;17.42;;;11.78;;
72205;SDS011;60111;48.286;7.812;2023-06-22T03:41:01;13.35;;;10.70;;
72205;SDS011;60111;48.286;7.812;2023-06-22T03:43:33;16.70;;;12.23;;
72205;SDS011;60111;48.286;7.812;2023-06-22T03:46:06;20.72;;;12.85;;
72205;SDS011;60111;48.286;7.812;2023-06-22T03:48:38;16.50;;;12.33;;
72205;SDS011;60111;48.286;7.812;2023-06-22T03:51:11;23.00;;;12.95;;
72205;SDS011;60111;48.286;7.812;2023-06-22T03:53:43;15.88;;;11.50;;
72205;SDS011;60111;48.286;7.812;2023-06-22T03:56:17;17.27;;;11.73;;
72205;SDS011;60111;48.286;7.812;2023-06-22T03:58:51;19.37;;;11.93;;
72205;SDS011;60111;48.286;7.812;2023-06-22T04:01:24;19.98;;;13.03;;
72205;SDS011;60111;48.286;7.812;2023-06-22T04:03:56;15.63;;;12.55;;
72205;SDS011;60111;48.286;7.812;2023-06-22T04:06:29;13.53;;;10.93;;
72205;SDS011;60111;48.286;7.812;2023-06-22T04:09:01;16.10;;;12.40;;
72205;SDS011;60111;48.286;7.812;2023-06-22T04:11:34;16.55;;;13.00;;
72205;SDS011;60111;48.286;7.812;2023-06-22T04:14:07;14.18;;;11.70;;
72205;SDS011;60111;48.286;7.812;2023-06-22T04:16:39;18.73;;;11.88;;
72205;SDS011;60111;48.286;7.812;2023-06-22T04:19:12;21.40;;;12.93;;
72205;SDS011;60111;48.286;7.812;2023-06-22T04:21:47;19.15;;;12.30;;
72205;SDS011;60111;48.286;7.812;2023-06-22T04:24:19;13.53;;;10.88;;
72205;SDS011;60111;48.286;7.812;2023-06-22T04:26:52;15.68;;;11.05;;
72205;SDS011;60111;48.286;7.812;2023-06-22T04:29:25;20.13;;;12.93;;
72205;SDS011;60111;48.286;7.812;2023-06-22T04:31:59;19.02;;;11.93;;
72205;SDS011;60111;48.286;7.812;2023-06-22T04:37:05;20.30;;;13.50;;
72205;SDS011;60111;48.286;7.812;2023-06-22T04:39:38;17.52;;;12.15;;
72205;SDS011;60111;48.286;7.812;2023-06-22T04:42:11;14.87;;;10.80;;
72205;SDS011;60111;48.286;7.812;2023-06-22T04:44:44;18.90;;;11.73;;
72205;SDS011;60111;48.286;7.812;2023-06-22T04:47:17;18.00;;;12.03;;
72205;SDS011;60111;48.286;7.812;2023-06-22T04:49:50;17.48;;;11.33;;
72205;SDS011;60111;48.286;7.812;2023-06-22T04:52:22;22.32;;;12.47;;
72205;SDS011;60111;48.286;7.812;2023-06-22T04:54:55;21.50;;;12.27;;
72205;SDS011;60111;48.286;7.812;2023-06-22T04:57:29;18.95;;;12.25;;
72205;SDS011;60111;48.286;7.812;2023-06-22T05:00:04;20.85;;;12.28;;
72205;SDS011;60111;48.286;7.812;2023-06-22T05:02:49;15.80;;;10.80;;
72205;SDS011;60111;48.286;7.812;2023-06-22T05:05:22;17.90;;;13.13;;
72205;SDS011;60111;48.286;7.812;2023-06-22T05:07:55;20.75;;;12.47;;
72205;SDS011;60111;48.286;7.812;2023-06-22T05:10:30;20.90;;;13.17;;
72205;SDS011;60111;48.286;7.812;2023-06-22T05:13:03;21.40;;;12.45;;
72205;SDS011;60111;48.286;7.812;2023-06-22T05:15:35;17.50;;;12.70;;
72205;SDS011;60111;48.286;7.812;2023-06-22T05:18:09;19.15;;;13.43;;
72205;SDS011;60111;48.286;7.812;2023-06-22T05:20:42;21.50;;;12.73;;
72205;SDS011;60111;48.286;7.812;2023-06-22T05:23:15;17.75;;;12.35;;
72205;SDS011;60111;48.286;7.812;2023-06-22T05:25:47;20.97;;;11.80;;
72205;SDS011;60111;48.286;7.812;2023-06-22T05:28:20;18.20;;;11.65;;
72205;SDS011;60111;48.286;7.812;2023-06-22T05:30:53;18.53;;;12.73;;
72205;SDS011;60111;48.286;7.812;2023-06-22T05:33:26;14.55;;;11.40;;
72205;SDS011;60111;48.286;7.812;2023-06-22T05:35:58;18.32;;;12.05;;
72205;SDS011;60111;48.286;7.812;2023-06-22T05:38:31;14.47;;;12.53;;
72205;SDS011;60111;48.286;7.812;2023-06-22T05:41:04;17.90;;;13.15;;
72205;SDS011;60111;48.286;7.812;2023-06-22T05:43:37;19.42;;;12.50;;
72205;SDS011;60111;48.286;7.812;2023-06-22T05:46:09;19.33;;;12.90;;
72205;SDS011;60111;48.286;7.812;2023-06-22T05:48:42;22.15;;;13.03;;
72205;SDS011;60111;48.286;7.812;2023-06-22T05:51:14;20.30;;;12.90;;
72205;SDS011;60111;48.286;7.812;2023-06-22T05:53:47;18.30;;;11.05;;
72205;SDS011;60111;48.286;7.812;2023-06-22T05:56:20;16.27;;;11.03;;
72205;SDS011;60111;48.286;7.812;2023-06-22T05:58:53;16.42;;;11.45;;
72205;SDS011;60111;48.286;7.812;2023-06-22T06:01:25;16.30;;;11.60;;
72205;SDS011;60111;48.286;7.812;2023-06-22T06:03:58;14.78;;;11.70;;
72205;SDS011;60111;48.286;7.812;2023-06-22T06:06:30;20.82;;;13.38;;
72205;SDS011;60111;48.286;7.812;2023-06-22T06:09:05;18.35;;;12.90;;
72205;SDS011;60111;48.286;7.812;2023-06-22T06:11:38;16.93;;;12.78;;
72205;SDS011;60111;48.286;7.812;2023-06-22T06:14:11;16.37;;;12.23;;
72205;SDS011;60111;48.286;7.812;2023-06-22T06:16:44;16.55;;;11.53;;
72205;SDS011;60111;48.286;7.812;2023-06-22T06:19:17;18.05;;;11.93;;
72205;SDS011;60111;48.286;7.812;2023-06-22T06:21:50;17.40;;;11.17;;
72205;SDS011;60111;48.286;7.812;2023-06-22T06:24:22;17.47;;;11.60;;
72205;SDS011;60111;48.286;7.812;2023-06-22T06:26:55;16.48;;;11.88;;
72205;SDS011;60111;48.286;7.812;2023-06-22T06:29:27;17.13;;;11.23;;
72205;SDS011;60111;48.286;7.812;2023-06-22T06:32:00;16.30;;;10.70;;
72205;SDS011;60111;48.286;7.812;2023-06-22T06:34:32;14.90;;;10.78;;
72205;SDS011;60111;48.286;7.812;2023-06-22T06:37:05;16.48;;;10.98;;
72205;SDS011;60111;48.286;7.812;2023-06-22T06:39:38;16.17;;;11.70;;
72205;SDS011;60111;48.286;7.812;2023-06-22T06:42:10;18.80;;;11.33;;
72205;SDS011;60111;48.286;7.812;2023-06-22T06:44:43;11.18;;;9.18;;
72205;SDS011;60111;48.286;7.812;2023-06-22T06:47:15;19.57;;;11.87;;
72205;SDS011;60111;48.286;7.812;2023-06-22T06:49:48;15.85;;;11.75;;
72205;SDS011;60111;48.286;7.812;2023-06-22T06:52:21;17.62;;;12.73;;
72205;SDS011;60111;48.286;7.812;2023-06-22T06:54:53;16.30;;;12.73;;
72205;SDS011;60111;48.286;7.812;2023-06-22T06:57:26;16.10;;;12.33;;
72205;SDS011;60111;48.286;7.812;2023-06-22T07:00:01;17.55;;;11.90;;
72205;SDS011;60111;48.286;7.812;2023-06-22T07:02:36;17.00;;;12.10;;
72205;SDS011;60111;48.286;7.812;2023-06-22T07:05:11;20.82;;;13.90;;
72205;SDS011;60111;48.286;7.812;2023-06-22T07:07:44;23.83;;;13.83;;
72205;SDS011;60111;48.286;7.812;2023-06-22T07:10:17;20.03;;;14.10;;
72205;SDS011;60111;48.286;7.812;2023-06-22T07:12:50;18.90;;;14.23;;
72205;SDS011;60111;48.286;7.812;2023-06-22T07:15:22;24.07;;;14.67;;
72205;SDS011;60111;48.286;7.812;2023-06-22T07:17:55;23.47;;;15.20;;
72205;SDS011;60111;48.286;7.812;2023-06-22T07:20:28;23.50;;;14.58;;
72205;SDS011;60111;48.286;7.812;2023-06-22T07:23:01;24.13;;;16.40;;
72205;SDS011;60111;48.286;7.812;2023-06-22T07:25:34;26.67;;;16.03;;
72205;SDS011;60111;48.286;7.812;2023-06-22T07:28:06;24.52;;;16.20;;
72205;SDS011;60111;48.286;7.812;2023-06-22T07:30:39;26.07;;;16.60;;
72205;SDS011;60111;48.286;7.812;2023-06-22T07:33:11;32.90;;;18.60;;
72205;SDS011;60111;48.286;7.812;2023-06-22T07:35:44;28.70;;;18.30;;
72205;SDS011;60111;48.286;7.812;2023-06-22T07:38:18;25.50;;;17.37;;
72205;SDS011;60111;48.286;7.812;2023-06-22T07:40:51;28.67;;;18.03;;
72205;SDS011;60111;48.286;7.812;2023-06-22T07:43:24;25.23;;;18.50;;
72205;SDS011;60111;48.286;7.812;2023-06-22T07:45:56;29.75;;;19.57;;
72205;SDS011;60111;48.286;7.812;2023-06-22T07:48:29;24.32;;;19.48;;
72205;SDS011;60111;48.286;7.812;2023-06-22T07:51:01;27.98;;;20.00;;
72205;SDS011;60111;48.286;7.812;2023-06-22T07:53:34;27.13;;;19.82;;
72205;SDS011;60111;48.286;7.812;2023-06-22T07:56:07;28.63;;;21.10;;
72205;SDS011;60111;48.286;7.812;2023-06-22T07:58:41;22.48;;;18.10;;
72205;SDS011;60111;48.286;7.812;2023-06-22T08:01:13;25.70;;;18.00;;
72205;SDS011;60111;48.286;7.812;2023-06-22T08:03:48;24.32;;;16.77;;
72205;SDS011;60111;48.286;7.812;2023-06-22T08:06:21;24.50;;;16.80;;
72205;SDS011;60111;48.286;7.812;2023-06-22T08:08:53;24.82;;;17.05;;
72205;SDS011;60111;48.286;7.812;2023-06-22T08:11:27;20.52;;;16.93;;
72205;SDS011;60111;48.286;7.812;2023-06-22T08:14:00;23.27;;;16.20;;
72205;SDS011;60111;48.286;7.812;2023-06-22T08:16:33;19.57;;;14.23;;
72205;SDS011;60111;48.286;7.812;2023-06-22T08:19:05;23.47;;;15.13;;
72205;SDS011;60111;48.286;7.812;2023-06-22T08:21:38;33.43;;;15.73;;
72205;SDS011;60111;48.286;7.812;2023-06-22T08:24:10;24.90;;;14.68;;
72205;SDS011;60111;48.286;7.812;2023-06-22T08:26:43;23.27;;;14.20;;
72205;SDS011;60111;48.286;7.812;2023-06-22T08:29:16;19.45;;;14.05;;
72205;SDS011;60111;48.286;7.812;2023-06-22T08:31:49;18.73;;;13.10;;
72205;SDS011;60111;48.286;7.812;2023-06-22T08:34:21;16.87;;;11.68;;
72205;SDS011;60111;48.286;7.812;2023-06-22T08:39:27;20.72;;;12.05;;
72205;SDS011;60111;48.286;7.812;2023-06-22T08:42:01;16.70;;;11.22;;
72205;SDS011;60111;48.286;7.812;2023-06-22T08:44:33;16.67;;;9.75;;
72205;SDS011;60111;48.286;7.812;2023-06-22T08:47:06;15.32;;;9.73;;
72205;SDS011;60111;48.286;7.812;2023-06-22T08:49:39;20.23;;;10.58;;
72205;SDS011;60111;48.286;7.812;2023-06-22T08:52:11;14.98;;;9.20;;
72205;SDS011;60111;48.286;7.812;2023-06-22T08:54:44;15.53;;;9.53;;
72205;SDS011;60111;48.286;7.812;2023-06-22T08:57:18;15.43;;;10.23;;
72205;SDS011;60111;48.286;7.812;2023-06-22T08:59:51;21.90;;;9.03;;
72205;SDS011;60111;48.286;7.812;2023-06-22T09:02:24;14.80;;;8.03;;
72205;SDS011;60111;48.286;7.812;2023-06-22T09:04:59;13.37;;;8.60;;
72205;SDS011;60111;48.286;7.812;2023-06-22T09:07:33;15.13;;;8.93;;
72205;SDS011;60111;48.286;7.812;2023-06-22T09:10:06;18.87;;;9.28;;
72205;SDS011;60111;48.286;7.812;2023-06-22T09:12:39;13.10;;;7.77;;
72205;SDS011;60111;48.286;7.812;2023-06-22T09:15:13;14.60;;;8.65;;
72205;SDS011;60111;48.286;7.812;2023-06-22T09:17:46;13.77;;;8.27;;
72205;SDS011;60111;48.286;7.812;2023-06-22T09:20:19;18.05;;;8.23;;
72205;SDS011;60111;48.286;7.812;2023-06-22T09:22:52;15.75;;;7.95;;
72205;SDS011;60111;48.286;7.812;2023-06-22T09:25:24;12.50;;;8.20;;
72205;SDS011;60111;48.286;7.812;2023-06-22T09:27:57;13.48;;;8.20;;
72205;SDS011;60111;48.286;7.812;2023-06-22T09:30:29;15.15;;;8.10;;
72205;SDS011;60111;48.286;7.812;2023-06-22T09:33:02;16.60;;;8.75;;
72205;SDS011;60111;48.286;7.812;2023-06-22T09:35:34;14.73;;;8.33;;
72205;SDS011;60111;48.286;7.812;2023-06-22T09:38:07;17.07;;;8.50;;
72205;SDS011;60111;48.286;7.812;2023-06-22T09:40:39;16.90;;;8.80;;
72205;SDS011;60111;48.286;7.812;2023-06-22T09:43:12;10.90;;;7.03;;
72205;SDS011;60111;48.286;7.812;2023-06-22T09:45:45;12.23;;;7.25;;
72205;SDS011;60111;48.286;7.812;2023-06-22T09:48:18;15.38;;;7.62;;
72205;SDS011;60111;48.286;7.812;2023-06-22T09:50:51;10.32;;;6.92;;
72205;SDS011;60111;48.286;7.812;2023-06-22T09:53:23;11.60;;;6.72;;
72205;SDS011;60111;48.286;7.812;2023-06-22T09:55:56;12.98;;;7.58;;
72205;SDS011;60111;48.286;7.812;2023-06-22T09:58:28;15.03;;;8.05;;
72205;SDS011;60111;48.286;7.812;2023-06-22T10:01:01;15.93;;;7.47;;
72205;SDS011;60111;48.286;7.812;2023-06-22T10:03:33;14.40;;;7.58;;
72205;SDS011;60111;48.286;7.812;2023-06-22T10:06:06;11.90;;;6.17;;
72205;SDS011;60111;48.286;7.812;2023-06-22T10:08:39;11.20;;;6.73;;
72205;SDS011;60111;48.286;7.812;2023-06-22T10:11:12;13.88;;;7.83;;
72205;SDS011;60111;48.286;7.812;2023-06-22T10:13:44;14.67;;;7.27;;
72205;SDS011;60111;48.286;7.812;2023-06-22T10:16:17;14.13;;;7.58;;
72205;SDS011;60111;48.286;7.812;2023-06-22T10:18:50;17.57;;;7.65;;
72205;SDS011;60111;48.286;7.812;2023-06-22T10:21:22;18.25;;;7.62;;
72205;SDS011;60111;48.286;7.812;2023-06-22T10:23:55;12.58;;;6.75;;
72205;SDS011;60111;48.286;7.812;2023-06-22T10:26:28;13.30;;;6.35;;
72205;SDS011;60111;48.286;7.812;2023-06-22T10:29:00;11.20;;;6.10;;
72205;SDS011;60111;48.286;7.812;2023-06-22T10:34:05;15.43;;;6.62;;
72205;SDS011;60111;48.286;7.812;2023-06-22T10:36:38;11.03;;;6.40;;
72205;SDS011;60111;48.286;7.812;2023-06-22T10:39:11;12.50;;;6.47;;
72205;SDS011;60111;48.286;7.812;2023-06-22T10:41:43;13.55;;;6.60;;
72205;SDS011;60111;48.286;7.812;2023-06-22T10:44:16;17.73;;;6.90;;
72205;SDS011;60111;48.286;7.812;2023-06-22T10:46:49;12.43;;;7.03;;
72205;SDS011;60111;48.286;7.812;2023-06-22T10:49:21;16.25;;;6.08;;
72205;SDS011;60111;48.286;7.812;2023-06-22T10:51:54;12.00;;;6.75;;
72205;SDS011;60111;48.286;7.812;2023-06-22T10:54:26;12.53;;;5.72;;
72205;SDS011;60111;48.286;7.812;2023-06-22T10:57:00;15.28;;;6.05;;
72205;SDS011;60111;48.286;7.812;2023-06-22T10:59:33;20.70;;;7.13;;
72205;SDS011;60111;48.286;7.812;2023-06-22T11:02:05;14.00;;;6.30;;
72205;SDS011;60111;48.286;7.812;2023-06-22T11:04:38;15.28;;;6.65;;
72205;SDS011;60111;48.286;7.812;2023-06-22T11:07:11;13.47;;;7.07;;
72205;SDS011;60111;48.286;7.812;2023-06-22T11:09:43;15.13;;;7.10;;
72205;SDS011;60111;48.286;7.812;2023-06-22T11:12:16;14.70;;;7.10;;
72205;SDS011;60111;48.286;7.812;2023-06-22T11:14:49;18.27;;;7.12;;
72205;SDS011;60111;48.286;7.812;2023-06-22T11:17:22;15.50;;;6.77;;
72205;SDS011;60111;48.286;7.812;2023-06-22T11:19:54;14.43;;;5.67;;
72205;SDS011;60111;48.286;7.812;2023-06-22T11:22:27;16.87;;;6.72;;
72205;SDS011;60111;48.286;7.812;2023-06-22T11:25:01;13.93;;;7.12;;
72205;SDS011;60111;48.286;7.812;2023-06-22T11:27:34;13.25;;;6.83;;
72205;SDS011;60111;48.286;7.812;2023-06-22T11:30:07;15.23;;;7.47;;
72205;SDS011;60111;48.286;7.812;2023-06-22T11:32:40;12.73;;;7.67;;
72205;SDS011;60111;48.286;7.812;2023-06-22T11:35:12;14.13;;;6.62;;
72205;SDS011;60111;48.286;7.812;2023-06-22T11:37:47;8.93;;;6.10;;
72205;SDS011;60111;48.286;7.812;2023-06-22T11:40:19;13.30;;;6.70;;
72205;SDS011;60111;48.286;7.812;2023-06-22T11:42:53;12.93;;;6.95;;
72205;SDS011;60111;48.286;7.812;2023-06-22T11:45:26;16.87;;;7.20;;
72205;SDS011;60111;48.286;7.812;2023-06-22T11:47:59;14.83;;;6.73;;
72205;SDS011;60111;48.286;7.812;2023-06-22T11:50:31;15.90;;;6.83;;
72205;SDS011;60111;48.286;7.812;2023-06-22T11:53:05;17.27;;;7.70;;
72205;SDS011;60111;48.286;7.812;2023-06-22T11:55:38;12.47;;;7.30;;
72205;SDS011;60111;48.286;7.812;2023-06-22T11:58:10;12.03;;;5.92;;
72205;SDS011;60111;48.286;7.812;2023-06-22T12:00:43;12.05;;;6.72;;
72205;SDS011;60111;48.286;7.812;2023-06-22T12:03:16;15.50;;;7.00;;
72205;SDS011;60111;48.286;7.812;2023-06-22T12:05:49;15.18;;;7.08;;
72205;SDS011;60111;48.286;7.812;2023-06-22T12:08:25;16.40;;;6.95;;
72205;SDS011;60111;48.286;7.812;2023-06-22T12:10:58;11.93;;;6.90;;
72205;SDS011;60111;48.286;7.812;2023-06-22T12:13:30;13.78;;;6.60;;
72205;SDS011;60111;48.286;7.812;2023-06-22T12:16:03;11.03;;;6.45;;
72205;SDS011;60111;48.286;7.812;2023-06-22T12:18:36;15.13;;;7.13;;
72205;SDS011;60111;48.286;7.812;2023-06-22T12:21:08;13.48;;;6.85;;
72205;SDS011;60111;48.286;7.812;2023-06-22T12:23:41;17.20;;;6.92;;
72205;SDS011;60111;48.286;7.812;2023-06-22T12:26:14;17.73;;;8.45;;
72205;SDS011;60111;48.286;7.812;2023-06-22T12:31:19;16.37;;;7.28;;
72205;SDS011;60111;48.286;7.812;2023-06-22T12:33:51;12.03;;;7.10;;
72205;SDS011;60111;48.286;7.812;2023-06-22T12:36:24;12.23;;;7.08;;
72205;SDS011;60111;48.286;7.812;2023-06-22T12:38:57;21.00;;;7.65;;
72205;SDS011;60111;48.286;7.812;2023-06-22T12:41:29;14.45;;;7.08;;
72205;SDS011;60111;48.286;7.812;2023-06-22T12:44:02;14.23;;;7.65;;
72205;SDS011;60111;48.286;7.812;2023-06-22T12:46:34;20.55;;;8.68;;
72205;SDS011;60111;48.286;7.812;2023-06-22T12:49:09;15.98;;;8.00;;
72205;SDS011;60111;48.286;7.812;2023-06-22T12:51:41;12.00;;;7.17;;
72205;SDS011;60111;48.286;7.812;2023-06-22T12:54:15;12.60;;;6.77;;
72205;SDS011;60111;48.286;7.812;2023-06-22T12:56:47;16.57;;;6.80;;
72205;SDS011;60111;48.286;7.812;2023-06-22T12:59:21;14.47;;;6.65;;
72205;SDS011;60111;48.286;7.812;2023-06-22T13:01:54;17.57;;;7.23;;
72205;SDS011;60111;48.286;7.812;2023-06-22T13:04:27;15.68;;;6.78;;
72205;SDS011;60111;48.286;7.812;2023-06-22T13:06:59;20.48;;;6.85;;
72205;SDS011;60111;48.286;7.812;2023-06-22T13:09:32;18.02;;;6.60;;
72205;SDS011;60111;48.286;7.812;2023-06-22T13:14:37;18.65;;;6.30;;
72205;SDS011;60111;48.286;7.812;2023-06-22T13:17:10;13.60;;;5.80;;
72205;SDS011;60111;48.286;7.812;2023-06-22T13:19:43;19.42;;;6.33;;
72205;SDS011;60111;48.286;7.812;2023-06-22T13:22:34;14.70;;;6.25;;
72205;SDS011;60111;48.286;7.812;2023-06-22T13:25:09;17.77;;;6.70;;
72205;SDS011;60111;48.286;7.812;2023-06-22T13:27:43;16.07;;;5.83;;
72205;SDS011;60111;48.286;7.812;2023-06-22T13:30:16;20.90;;;6.45;;
72205;SDS011;60111;48.286;7.812;2023-06-22T13:32:49;11.80;;;6.12;;
72205;SDS011;60111;48.286;7.812;2023-06-22T13:35:22;16.50;;;6.45;;
72205;SDS011;60111;48.286;7.812;2023-06-22T13:37:54;18.27;;;6.03;;
72205;SDS011;60111;48.286;7.812;2023-06-22T13:40:27;12.07;;;5.80;;
72205;SDS011;60111;48.286;7.812;2023-06-22T13:42:59;13.50;;;5.97;;
72205;SDS011;60111;48.286;7.812;2023-06-22T13:45:32;13.17;;;5.27;;
72205;SDS011;60111;48.286;7.812;2023-06-22T13:48:05;19.10;;;5.78;;
72205;SDS011;60111;48.286;7.812;2023-06-22T13:50:37;20.88;;;6.35;;
72205;SDS011;60111;48.286;7.812;2023-06-22T13:53:10;24.15;;;5.58;;
72205;SDS011;60111;48.286;7.812;2023-06-22T13:55:43;22.37;;;6.10;;
72205;SDS011;60111;48.286;7.812;2023-06-22T13:58:15;13.53;;;5.70;;
72205;SDS011;60111;48.286;7.812;2023-06-22T14:00:49;17.07;;;5.97;;
72205;SDS011;60111;48.286;7.812;2023-06-22T14:03:22;14.78;;;5.42;;
72205;SDS011;60111;48.286;7.812;2023-06-22T14:05:55;18.55;;;6.00;;
72205;SDS011;60111;48.286;7.812;2023-06-22T14:08:28;17.23;;;5.75;;
72205;SDS011;60111;48.286;7.812;2023-06-22T14:11:01;16.75;;;5.90;;
72205;SDS011;60111;48.286;7.812;2023-06-22T14:13:34;23.52;;;5.95;;
72205;SDS011;60111;48.286;7.812;2023-06-22T14:16:06;19.10;;;5.70;;
72205;SDS011;60111;48.286;7.812;2023-06-22T14:18:39;21.15;;;6.45;;
72205;SDS011;60111;48.286;7.812;2023-06-22T14:21:11;15.73;;;5.67;;
72205;SDS011;60111;48.286;7.812;2023-06-22T14:23:44;25.52;;;6.00;;
72205;SDS011;60111;48.286;7.812;2023-06-22T14:26:19;18.40;;;5.97;;
72205;SDS011;60111;48.286;7.812;2023-06-22T14:28:53;27.02;;;5.90;;
72205;SDS011;60111;48.286;7.812;2023-06-22T14:31:27;12.90;;;4.87;;
72205;SDS011;60111;48.286;7.812;2023-06-22T14:34:00;13.93;;;5.70;;
72205;SDS011;60111;48.286;7.812;2023-06-22T14:36:34;20.62;;;5.47;;
72205;SDS011;60111;48.286;7.812;2023-06-22T14:39:06;14.98;;;5.55;;
72205;SDS011;60111;48.286;7.812;2023-06-22T14:41:39;16.93;;;5.37;;
72205;SDS011;60111;48.286;7.812;2023-06-22T14:44:12;16.97;;;5.72;;
72205;SDS011;60111;48.286;7.812;2023-06-22T14:46:44;18.87;;;5.75;;
72205;SDS011;60111;48.286;7.812;2023-06-22T14:49:17;21.68;;;5.92;;
72205;SDS011;60111;48.286;7.812;2023-06-22T14:51:50;17.15;;;5.70;;
72205;SDS011;60111;48.286;7.812;2023-06-22T14:54:22;14.63;;;5.05;;
72205;SDS011;60111;48.286;7.812;2023-06-22T14:56:55;23.10;;;5.40;;
72205;SDS011;60111;48.286;7.812;2023-06-22T14:59:27;21.37;;;5.20;;
72205;SDS011;60111;48.286;7.812;2023-06-22T15:02:00;14.30;;;4.90;;
72205;SDS011;60111;48.286;7.812;2023-06-22T15:04:32;17.57;;;5.30;;
72205;SDS011;60111;48.286;7.812;2023-06-22T15:07:05;14.50;;;5.23;;
72205;SDS011;60111;48.286;7.812;2023-06-22T15:09:38;19.75;;;4.83;;
72205;SDS011;60111;48.286;7.812;2023-06-22T15:12:12;19.97;;;5.40;;
72205;SDS011;60111;48.286;7.812;2023-06-22T15:14:45;14.63;;;4.95;;
72205;SDS011;60111;48.286;7.812;2023-06-22T15:17:17;16.63;;;5.10;;
72205;SDS011;60111;48.286;7.812;2023-06-22T15:19:50;21.45;;;5.55;;
72205;SDS011;60111;48.286;7.812;2023-06-22T15:22:22;18.43;;;4.87;;
72205;SDS011;60111;48.286;7.812;2023-06-22T15:24:55;18.97;;;5.07;;
72205;SDS011;60111;48.286;7.812;2023-06-22T15:27:29;22.97;;;4.70;;